Time;durP1;ratioP1;P1;durP2;ratioP2;P2;SDS_P1;SDS_P2;PMS_P1;PMS_P2;Temp;Humidity;BMP_temperature;BMP_pressure;BME280_temperature;BME280_humidity;BME280_pressure;Samples;Min_cycle;Max_cycle;Signal;HPM_P1;HPM_P2
2023/07/31 00:02:14;;;;;;;7.28;3.10;;;16.30;99.90;;;;;;5017910;28;20045;-87
2023/07/31 00:04:40;;;;;;;5.72;3.50;;;16.30;99.90;;;;;;5008713;28;20073;-88
2023/07/31 00:07:06;;;;;;;7.10;3.53;;;16.30;99.90;;;;;;5015474;28;20120;-87
2023/07/31 00:09:35;;;;;;;5.13;3.33;;;16.30;99.90;;;;;;5008874;28;20140;-87
2023/07/31 00:12:00;;;;;;;5.88;3.50;;;16.20;99.90;;;;;;5009568;28;20078;-87
2023/07/31 00:14:26;;;;;;;7.97;3.45;;;16.30;99.90;;;;;;4992184;28;20081;-87
2023/07/31 00:16:52;;;;;;;8.40;3.30;;;16.20;99.90;;;;;;4991675;28;20058;-86
2023/07/31 00:19:18;;;;;;;6.25;3.28;;;16.20;99.90;;;;;;5009188;28;20045;-87
2023/07/31 00:21:44;;;;;;;7.13;3.25;;;16.20;99.90;;;;;;4991748;28;20048;-86
2023/07/31 00:24:10;;;;;;;6.03;3.40;;;16.20;99.90;;;;;;5008503;28;20108;-85
2023/07/31 00:26:36;;;;;;;6.65;3.42;;;16.20;99.90;;;;;;5005615;28;20481;-85
2023/07/31 00:29:01;;;;;;;4.85;2.92;;;16.10;99.90;;;;;;5007918;28;20176;-85
2023/07/31 00:31:27;;;;;;;6.45;3.75;;;16.10;99.90;;;;;;4990952;28;20083;-85
2023/07/31 00:33:53;;;;;;;6.60;3.42;;;16.00;99.90;;;;;;4995344;28;20037;-85
2023/07/31 00:36:18;;;;;;;5.63;2.90;;;16.00;99.90;;;;;;5008372;28;20045;-85
2023/07/31 00:38:44;;;;;;;5.85;3.53;;;16.00;99.90;;;;;;5008421;28;20057;-85
2023/07/31 00:41:10;;;;;;;5.90;3.42;;;15.90;99.90;;;;;;5025782;28;20052;-85
2023/07/31 00:43:35;;;;;;;11.23;3.63;;;16.00;99.90;;;;;;4991579;28;20492;-85
2023/07/31 00:46:01;;;;;;;6.78;3.35;;;15.90;99.90;;;;;;5025966;28;20069;-85
2023/07/31 00:48:27;;;;;;;6.80;3.60;;;15.90;99.90;;;;;;5009118;28;20183;-85
2023/07/31 00:50:53;;;;;;;5.90;3.72;;;15.80;99.90;;;;;;5007785;28;20103;-85
2023/07/31 00:53:19;;;;;;;7.45;3.42;;;15.90;99.90;;;;;;5009362;28;20152;-85
2023/07/31 00:55:45;;;;;;;7.85;3.83;;;15.80;99.90;;;;;;5008178;28;20057;-85
2023/07/31 00:58:11;;;;;;;7.53;3.70;;;15.80;99.90;;;;;;5007502;28;20037;-85
2023/07/31 01:00:37;;;;;;;6.28;3.38;;;15.80;99.90;;;;;;5008592;28;20144;-85
2023/07/31 01:03:03;;;;;;;6.75;4.28;;;15.80;99.90;;;;;;5025387;28;20037;-85
2023/07/31 01:06:01;;;;;;;6.00;3.95;;;15.70;99.90;;;;;;5026567;28;20117;-85
2023/07/31 01:08:49;;;;;;;6.93;4.50;;;15.80;99.90;;;;;;4997112;28;20041;-85
2023/07/31 01:11:31;;;;;;;10.40;4.93;;;15.70;99.90;;;;;;4992023;28;20611;-85
2023/07/31 01:13:57;;;;;;;6.73;4.57;;;15.70;99.90;;;;;;5026997;28;20049;-85
2023/07/31 01:16:25;;;;;;;5.82;3.90;;;15.70;99.90;;;;;;5008939;28;20053;-85
2023/07/31 01:18:50;;;;;;;8.10;3.33;;;15.70;99.90;;;;;;5011318;28;20107;-85
2023/07/31 01:21:34;;;;;;;6.05;3.17;;;15.60;99.90;;;;;;5030518;28;20037;-85
2023/07/31 01:24:39;;;;;;;5.95;3.60;;;15.60;99.90;;;;;;5029505;28;20580;-85
2023/07/31 01:27:10;;;;;;;5.97;2.90;;;15.60;99.90;;;;;;5029239;28;20119;-85
2023/07/31 01:29:47;;;;;;;18.02;2.85;;;15.60;99.90;;;;;;5012271;28;20386;-85
2023/07/31 01:32:14;;;;;;;7.72;2.97;;;15.60;99.90;;;;;;5010170;28;20049;-84
2023/07/31 01:34:41;;;;;;;4.50;2.60;;;15.60;99.90;;;;;;5029630;28;20137;-84
2023/07/31 01:37:07;;;;;;;4.55;2.00;;;15.60;99.90;;;;;;5011357;28;20140;-85
2023/07/31 01:39:33;;;;;;;5.15;2.10;;;15.70;99.90;;;;;;4995135;28;20132;-85
2023/07/31 01:41:58;;;;;;;10.43;3.00;;;15.70;99.90;;;;;;5011231;28;20042;-85
2023/07/31 01:44:24;;;;;;;5.20;3.00;;;15.60;99.90;;;;;;4994991;28;20057;-85
2023/07/31 01:46:50;;;;;;;6.63;2.90;;;15.70;99.90;;;;;;5009740;28;20041;-84
2023/07/31 01:49:15;;;;;;;3.88;2.33;;;15.70;99.90;;;;;;4995597;28;20049;-84
2023/07/31 01:51:41;;;;;;;4.30;2.00;;;15.70;99.90;;;;;;5011071;28;20037;-85
2023/07/31 01:54:07;;;;;;;5.07;2.75;;;15.70;99.90;;;;;;4994696;28;20041;-85
2023/07/31 01:56:32;;;;;;;4.15;2.63;;;15.70;99.90;;;;;;5028543;28;20049;-86
2023/07/31 01:58:58;;;;;;;5.50;3.15;;;15.70;99.90;;;;;;5011450;28;20132;-85
2023/07/31 02:01:24;;;;;;;7.70;2.10;;;15.70;99.90;;;;;;5009675;28;20076;-85
2023/07/31 02:03:49;;;;;;;4.68;2.42;;;15.70;99.90;;;;;;5011382;28;20045;-85
2023/07/31 02:06:15;;;;;;;3.95;1.90;;;15.60;99.90;;;;;;5010610;28;20041;-85
2023/07/31 02:08:41;;;;;;;5.00;2.45;;;15.60;99.90;;;;;;5010386;28;20037;-84
2023/07/31 02:11:06;;;;;;;5.15;3.35;;;15.60;99.90;;;;;;5014793;28;20144;-85
2023/07/31 02:13:32;;;;;;;5.50;2.60;;;15.70;99.90;;;;;;4994366;28;20650;-85
2023/07/31 02:15:58;;;;;;;4.25;2.55;;;15.70;99.90;;;;;;4993020;28;20057;-86
2023/07/31 02:18:23;;;;;;;9.35;3.40;;;15.60;99.90;;;;;;5011308;28;20441;-84
2023/07/31 02:20:52;;;;;;;8.43;3.20;;;15.60;99.90;;;;;;5009451;28;21121;-84
2023/07/31 02:23:19;;;;;;;5.93;2.92;;;15.60;99.90;;;;;;5027719;28;20043;-84
2023/07/31 02:25:45;;;;;;;5.88;2.03;;;15.60;99.90;;;;;;5010151;28;20489;-84
2023/07/31 02:28:11;;;;;;;7.15;2.60;;;15.60;99.90;;;;;;5025886;28;20042;-85
2023/07/31 02:30:37;;;;;;;4.30;1.80;;;15.60;99.90;;;;;;5028842;28;20091;-85
2023/07/31 02:33:05;;;;;;;3.65;1.60;;;15.60;99.90;;;;;;5009678;28;20046;-85
2023/07/31 02:35:30;;;;;;;5.88;1.83;;;15.60;99.90;;;;;;5000208;28;20392;-85
2023/07/31 02:37:56;;;;;;;4.38;1.50;;;15.60;99.90;;;;;;5026591;28;20493;-85
2023/07/31 02:40:22;;;;;;;3.67;1.98;;;15.50;99.90;;;;;;5027070;28;20452;-85
2023/07/31 02:42:47;;;;;;;4.18;2.10;;;15.60;99.90;;;;;;5027638;28;20038;-84
2023/07/31 02:45:13;;;;;;;4.68;2.47;;;15.60;99.90;;;;;;4994108;28;20476;-84
2023/07/31 02:47:39;;;;;;;6.30;2.28;;;15.50;99.90;;;;;;5009150;28;20049;-84
2023/07/31 02:50:05;;;;;;;3.72;2.20;;;15.50;99.90;;;;;;5027670;28;20124;-85
2023/07/31 02:52:31;;;;;;;4.70;2.33;;;15.60;99.90;;;;;;5010533;28;20037;-85
2023/07/31 02:54:57;;;;;;;5.05;1.65;;;15.60;99.90;;;;;;5010388;28;20192;-84
2023/07/31 02:57:23;;;;;;;3.88;1.50;;;15.50;99.90;;;;;;5026797;28;20380;-84
2023/07/31 02:59:49;;;;;;;3.08;1.40;;;15.50;99.90;;;;;;5028232;28;20053;-84
2023/07/31 03:02:14;;;;;;;3.17;1.40;;;15.50;99.90;;;;;;5025684;28;20045;-84
2023/07/31 03:04:40;;;;;;;4.13;1.50;;;15.50;99.90;;;;;;5008000;28;20045;-84
2023/07/31 03:07:06;;;;;;;2.75;1.50;;;15.50;99.90;;;;;;5026861;28;20050;-84
2023/07/31 03:09:32;;;;;;;4.30;1.50;;;15.50;99.90;;;;;;5008968;28;20048;-84
2023/07/31 03:11:57;;;;;;;7.65;1.77;;;15.50;99.90;;;;;;5027617;28;20442;-84
2023/07/31 03:14:23;;;;;;;3.55;1.40;;;15.50;99.90;;;;;;5026104;28;20523;-85
2023/07/31 03:16:49;;;;;;;5.53;1.63;;;15.50;99.90;;;;;;5008049;28;20387;-85
2023/07/31 03:19:14;;;;;;;8.65;1.83;;;15.50;99.90;;;;;;5010062;28;20072;-84
2023/07/31 03:21:40;;;;;;;4.40;1.50;;;15.50;99.90;;;;;;5009325;28;20038;-85
2023/07/31 03:24:06;;;;;;;4.40;1.80;;;15.50;99.90;;;;;;5009427;28;20053;-85
2023/07/31 03:26:32;;;;;;;3.10;1.30;;;15.40;99.90;;;;;;5026810;28;20128;-85
2023/07/31 03:28:58;;;;;;;5.30;1.15;;;15.40;99.90;;;;;;4993168;28;20424;-85
2023/07/31 03:31:24;;;;;;;3.15;1.30;;;15.40;99.90;;;;;;4991930;28;20183;-84
2023/07/31 03:33:49;;;;;;;4.05;1.38;;;15.40;99.90;;;;;;5008943;28;20037;-84
2023/07/31 03:36:15;;;;;;;3.50;1.40;;;15.40;99.90;;;;;;4993722;28;20139;-84
2023/07/31 03:38:41;;;;;;;3.85;1.20;;;15.40;99.90;;;;;;5008334;28;20496;-84
2023/07/31 03:41:06;;;;;;;3.25;1.08;;;15.40;99.90;;;;;;4993368;28;20509;-84
2023/07/31 03:43:35;;;;;;;6.65;1.33;;;15.30;99.90;;;;;;5027509;28;20034;-84
2023/07/31 03:46:02;;;;;;;2.85;1.20;;;15.40;99.90;;;;;;4991214;28;20489;-85
2023/07/31 03:48:28;;;;;;;3.05;1.20;;;15.30;99.90;;;;;;5009444;28;20042;-85
2023/07/31 03:50:54;;;;;;;3.00;1.50;;;15.30;99.90;;;;;;5008600;28;20052;-85
2023/07/31 03:53:19;;;;;;;2.88;1.20;;;15.30;99.90;;;;;;4992062;28;20037;-85
2023/07/31 03:55:45;;;;;;;5.03;1.38;;;15.30;99.90;;;;;;5009313;28;20045;-84
2023/07/31 03:58:11;;;;;;;3.85;1.38;;;15.30;99.90;;;;;;4992944;28;20481;-85
2023/07/31 04:00:37;;;;;;;4.75;1.40;;;15.30;99.90;;;;;;4992203;28;20143;-85
2023/07/31 04:03:03;;;;;;;5.07;1.55;;;15.40;99.90;;;;;;5008271;28;20187;-85
2023/07/31 04:05:32;;;;;;;6.30;2.20;;;15.40;99.90;;;;;;5027203;28;20037;-85
2023/07/31 04:07:57;;;;;;;7.43;3.20;;;15.40;99.90;;;;;;5007921;28;20921;-85
2023/07/31 04:10:23;;;;;;;8.13;3.47;;;15.40;99.90;;;;;;5009277;28;20580;-85
2023/07/31 04:12:49;;;;;;;6.15;3.65;;;15.40;99.90;;;;;;5008060;28;20037;-85
2023/07/31 04:15:15;;;;;;;7.95;3.90;;;15.40;99.90;;;;;;4993052;28;20135;-85
2023/07/31 04:17:40;;;;;;;9.20;4.32;;;15.40;99.90;;;;;;5024866;28;20183;-85
2023/07/31 04:20:06;;;;;;;10.93;4.53;;;15.40;99.90;;;;;;5010937;28;20041;-85
2023/07/31 04:22:32;;;;;;;18.70;3.15;;;15.40;99.90;;;;;;5043757;28;20053;-85
2023/07/31 04:24:58;;;;;;;4.25;1.70;;;15.50;99.90;;;;;;5028533;28;20064;-85
2023/07/31 04:27:24;;;;;;;6.90;1.55;;;15.40;99.90;;;;;;5023746;28;20047;-85
2023/07/31 04:29:50;;;;;;;4.70;1.33;;;15.50;99.90;;;;;;5027535;28;20045;-85
2023/07/31 04:32:16;;;;;;;4.53;1.30;;;15.50;99.90;;;;;;5001197;28;20032;-86
2023/07/31 04:34:42;;;;;;;4.30;1.10;;;15.50;99.90;;;;;;5013600;28;20401;-86
2023/07/31 04:37:08;;;;;;;8.18;1.40;;;15.40;99.90;;;;;;5000684;28;20116;-85
2023/07/31 04:39:34;;;;;;;2.22;1.00;;;15.50;99.90;;;;;;5015144;28;20160;-86
2023/07/31 04:41:59;;;;;;;3.65;1.50;;;15.50;99.90;;;;;;5015520;28;20045;-86
2023/07/31 04:44:25;;;;;;;5.00;1.10;;;15.50;99.90;;;;;;5030297;28;20077;-86
2023/07/31 04:46:51;;;;;;;4.20;1.02;;;15.50;99.90;;;;;;5040623;28;20128;-86
2023/07/31 04:49:17;;;;;;;3.05;0.90;;;15.50;99.90;;;;;;5015475;28;20509;-86
2023/07/31 04:51:42;;;;;;;5.32;0.70;;;15.50;99.90;;;;;;5019364;28;20079;-85
2023/07/31 04:54:08;;;;;;;4.03;1.30;;;15.50;99.90;;;;;;5039083;28;20495;-86
2023/07/31 04:56:34;;;;;;;5.25;1.60;;;15.60;99.90;;;;;;5021134;28;20104;-85
2023/07/31 04:58:59;;;;;;;6.18;1.73;;;15.60;99.90;;;;;;5024499;28;20052;-86
2023/07/31 05:01:25;;;;;;;4.38;2.05;;;15.60;99.90;;;;;;5003812;28;20507;-86
2023/07/31 05:03:51;;;;;;;4.45;1.50;;;15.60;99.90;;;;;;5021220;28;20033;-86
2023/07/31 05:06:17;;;;;;;5.65;1.30;;;15.60;99.90;;;;;;5050320;28;20040;-85
2023/07/31 05:08:42;;;;;;;2.28;0.70;;;15.60;99.90;;;;;;5032160;28;20064;-87
2023/07/31 05:11:08;;;;;;;2.45;0.75;;;15.70;99.90;;;;;;5030810;28;20477;-86
2023/07/31 05:13:34;;;;;;;1.15;0.45;;;15.70;99.90;;;;;;5032147;28;20041;-86
2023/07/31 05:15:59;;;;;;;6.97;1.20;;;15.70;99.90;;;;;;5047861;28;20060;-87
2023/07/31 05:18:25;;;;;;;3.00;0.57;;;15.70;99.90;;;;;;5005425;28;20566;-86
2023/07/31 05:20:51;;;;;;;6.68;0.75;;;15.70;99.90;;;;;;5012144;28;20103;-86
2023/07/31 05:23:16;;;;;;;4.95;0.80;;;15.70;99.90;;;;;;4995720;28;20124;-87
2023/07/31 05:25:42;;;;;;;7.43;0.77;;;15.70;99.90;;;;;;5028419;28;20359;-86
2023/07/31 05:28:08;;;;;;;3.33;0.55;;;15.70;99.90;;;;;;5022202;28;20069;-87
2023/07/31 05:30:34;;;;;;;3.38;0.50;;;15.70;99.90;;;;;;4995506;28;20053;-86
2023/07/31 05:32:59;;;;;;;4.13;0.40;;;15.70;99.90;;;;;;5028472;28;20125;-86
2023/07/31 05:35:25;;;;;;;5.25;0.47;;;15.70;99.90;;;;;;5030477;28;20046;-86
2023/07/31 05:37:50;;;;;;;3.88;0.40;;;15.70;99.90;;;;;;4995148;28;20054;-86
2023/07/31 05:40:16;;;;;;;5.05;0.50;;;15.70;99.90;;;;;;5012716;28;20081;-85
2023/07/31 05:42:42;;;;;;;1.90;0.50;;;15.70;99.90;;;;;;4995505;28;20489;-86
2023/07/31 05:45:08;;;;;;;2.72;0.60;;;15.80;99.90;;;;;;5011316;28;20038;-87
2023/07/31 05:47:34;;;;;;;3.58;0.70;;;15.80;99.90;;;;;;5010797;28;20038;-86
2023/07/31 05:49:59;;;;;;;5.75;0.80;;;15.80;99.90;;;;;;4998681;28;20048;-86
2023/07/31 05:52:25;;;;;;;3.60;1.08;;;15.80;99.90;;;;;;5003683;28;20049;-86
2023/07/31 05:54:51;;;;;;;6.25;1.48;;;15.80;99.90;;;;;;5011451;28;20044;-86
2023/07/31 05:57:17;;;;;;;4.38;1.73;;;15.80;99.90;;;;;;5005248;28;20052;-86
2023/07/31 05:59:42;;;;;;;5.97;1.80;;;15.80;99.90;;;;;;5046889;28;20080;-86
2023/07/31 06:02:08;;;;;;;3.15;0.80;;;15.80;99.90;;;;;;5013539;28;20088;-86
2023/07/31 06:04:34;;;;;;;1.65;0.70;;;15.90;99.90;;;;;;5040004;28;20037;-86
2023/07/31 06:07:00;;;;;;;3.22;1.00;;;15.90;99.90;;;;;;5016836;28;20051;-86
2023/07/31 06:09:26;;;;;;;3.60;0.90;;;15.90;99.90;;;;;;5020828;28;20044;-86
2023/07/31 06:11:52;;;;;;;3.25;1.20;;;16.00;99.90;;;;;;5021619;28;20048;-86
2023/07/31 06:14:18;;;;;;;4.68;1.60;;;16.00;99.90;;;;;;5004968;28;20052;-87
2023/07/31 06:16:44;;;;;;;3.10;1.30;;;16.10;99.90;;;;;;4997033;28;20045;-87
2023/07/31 06:19:10;;;;;;;8.20;1.60;;;16.10;99.90;;;;;;5020284;28;20049;-87
2023/07/31 06:21:41;;;;;;;8.88;2.00;;;16.10;99.90;;;;;;4988935;28;20119;-87
2023/07/31 06:24:07;;;;;;;7.00;2.05;;;16.10;99.90;;;;;;5004692;28;20049;-86
2023/07/31 06:26:33;;;;;;;6.68;2.05;;;16.10;99.90;;;;;;4984455;28;20046;-86
2023/07/31 06:28:59;;;;;;;9.30;2.58;;;16.20;99.90;;;;;;5000046;28;20049;-87
2023/07/31 06:31:25;;;;;;;8.00;2.72;;;16.20;99.90;;;;;;4980335;28;20048;-86
2023/07/31 06:33:52;;;;;;;12.32;3.10;;;16.20;99.90;;;;;;4982084;28;20140;-86
2023/07/31 06:36:17;;;;;;;8.55;2.78;;;16.20;99.90;;;;;;4996099;28;20052;-87
2023/07/31 06:38:43;;;;;;;13.63;3.60;;;16.30;99.90;;;;;;4994370;28;20071;-88
2023/07/31 06:41:10;;;;;;;12.45;3.60;;;16.40;99.90;;;;;;5011194;28;20050;-89
2023/07/31 06:43:36;;;;;;;14.13;4.10;;;16.40;99.90;;;;;;5013159;28;20056;-91
2023/07/31 06:46:09;;;;;;;21.55;5.60;;;16.40;99.90;;;;;;4990964;28;20495;-86
2023/07/31 06:48:38;;;;;;;25.52;7.18;;;16.50;99.90;;;;;;4992427;28;20391;-86
2023/07/31 06:51:04;;;;;;;22.65;7.63;;;16.60;99.90;;;;;;4977396;28;20044;-86
2023/07/31 06:53:30;;;;;;;28.80;6.75;;;16.60;99.90;;;;;;5014028;28;20061;-85
2023/07/31 06:55:55;;;;;;;32.28;8.70;;;16.70;99.90;;;;;;5010765;28;20136;-86
2023/07/31 06:58:21;;;;;;;26.15;7.00;;;16.90;99.90;;;;;;4990650;28;20037;-86
2023/07/31 07:00:49;;;;;;;27.10;7.93;;;17.10;99.90;;;;;;4989102;28;20033;-86
2023/07/31 07:03:14;;;;;;;26.58;7.05;;;17.20;99.90;;;;;;4997247;28;20034;-86
2023/07/31 07:05:40;;;;;;;25.50;7.25;;;17.30;99.90;;;;;;5001165;28;20042;-86
2023/07/31 07:08:06;;;;;;;28.23;6.80;;;17.40;99.90;;;;;;4997681;28;20049;-87
2023/07/31 07:10:33;;;;;;;27.00;6.97;;;17.50;99.90;;;;;;4978248;28;20045;-85
2023/07/31 07:12:59;;;;;;;27.05;7.03;;;17.60;99.90;;;;;;5012194;28;20042;-87
2023/07/31 07:15:25;;;;;;;28.35;7.07;;;17.60;99.90;;;;;;4976110;28;20502;-86
2023/07/31 07:17:50;;;;;;;23.52;6.72;;;17.50;99.90;;;;;;5001773;28;20085;-87
2023/07/31 07:20:16;;;;;;;30.98;7.43;;;17.50;99.90;;;;;;5026819;28;20053;-86
2023/07/31 07:22:45;;;;;;;26.45;7.82;;;17.60;99.90;;;;;;4996449;28;20127;-87
2023/07/31 07:25:10;;;;;;;24.58;7.15;;;17.60;99.90;;;;;;5036012;28;20049;-86
2023/07/31 07:27:36;;;;;;;28.48;8.20;;;17.50;99.90;;;;;;5007550;28;20519;-87
2023/07/31 07:30:02;;;;;;;27.08;8.32;;;17.50;99.90;;;;;;5023765;28;20132;-87
2023/07/31 07:32:28;;;;;;;25.08;8.30;;;17.50;99.90;;;;;;5029847;28;20124;-87
2023/07/31 07:34:55;;;;;;;37.88;9.18;;;17.40;99.90;;;;;;5014564;28;20584;-87
2023/07/31 07:37:21;;;;;;;27.60;8.88;;;17.50;99.90;;;;;;4990256;28;20041;-87
2023/07/31 07:39:47;;;;;;;23.38;8.02;;;17.40;99.90;;;;;;5008303;28;20064;-87
2023/07/31 07:42:13;;;;;;;24.02;6.63;;;17.30;99.90;;;;;;4991831;28;20448;-87
2023/07/31 07:44:38;;;;;;;19.40;7.00;;;17.30;99.90;;;;;;5023222;28;20043;-87
2023/07/31 07:47:06;;;;;;;26.17;8.25;;;17.20;99.90;;;;;;5007445;28;20045;-87
2023/07/31 07:49:36;;;;;;;26.23;7.95;;;17.20;99.90;;;;;;5023817;28;20266;-87
2023/07/31 07:52:02;;;;;;;13.00;5.22;;;17.10;99.90;;;;;;5000121;28;20528;-87
2023/07/31 07:54:28;;;;;;;12.90;4.28;;;17.10;99.90;;;;;;5009221;28;20041;-87
2023/07/31 07:56:53;;;;;;;9.07;3.30;;;17.10;99.90;;;;;;5009617;28;20098;-87
2023/07/31 07:59:20;;;;;;;13.25;3.13;;;17.10;99.90;;;;;;5009121;28;20041;-88
2023/07/31 08:01:45;;;;;;;10.20;2.85;;;17.10;99.90;;;;;;5008626;28;20124;-87
2023/07/31 08:04:11;;;;;;;6.38;2.20;;;17.10;99.90;;;;;;5010239;28;20243;-86
2023/07/31 08:06:37;;;;;;;7.35;2.70;;;17.20;99.90;;;;;;5008319;28;20524;-87
2023/07/31 08:09:06;;;;;;;5.20;1.77;;;17.20;99.90;;;;;;5009961;28;20056;-87
2023/07/31 08:11:35;;;;;;;5.30;1.80;;;17.20;99.90;;;;;;5025186;28;20445;-87
2023/07/31 08:14:01;;;;;;;7.97;2.05;;;17.20;99.90;;;;;;5008524;28;20041;-86
2023/07/31 08:16:27;;;;;;;4.32;1.58;;;17.30;99.90;;;;;;5026095;28;20052;-86
2023/07/31 08:18:52;;;;;;;6.15;2.00;;;17.30;99.90;;;;;;4988916;28;20050;-86
2023/07/31 08:21:18;;;;;;;6.95;2.13;;;17.30;99.90;;;;;;4991620;28;20507;-87
2023/07/31 08:23:44;;;;;;;4.85;1.52;;;17.40;99.90;;;;;;5006618;28;20052;-87
2023/07/31 08:26:18;;;;;;;4.90;1.73;;;17.40;99.90;;;;;;5006929;28;20037;-86
2023/07/31 08:28:44;;;;;;;7.05;2.35;;;17.50;99.90;;;;;;5028640;28;20071;-87
2023/07/31 08:31:10;;;;;;;6.32;2.65;;;17.60;99.90;;;;;;4995824;28;20501;-86
2023/07/31 08:33:36;;;;;;;4.53;1.80;;;17.70;99.90;;;;;;5011375;28;20509;-86
2023/07/31 08:36:02;;;;;;;4.43;1.70;;;17.80;99.90;;;;;;5028946;28;20124;-86
2023/07/31 08:38:29;;;;;;;5.80;1.60;;;17.90;99.90;;;;;;5011703;28;20501;-86
2023/07/31 08:40:56;;;;;;;5.93;1.98;;;18.00;99.90;;;;;;4994869;28;20049;-86
2023/07/31 08:43:25;;;;;;;3.25;1.52;;;18.10;99.90;;;;;;5028564;28;20128;-86
2023/07/31 08:45:51;;;;;;;5.47;1.63;;;18.10;99.90;;;;;;5011236;28;20060;-86
2023/07/31 08:48:17;;;;;;;4.22;1.30;;;18.10;99.90;;;;;;5010869;28;20038;-86
2023/07/31 08:50:43;;;;;;;2.95;1.30;;;18.20;99.90;;;;;;4995550;28;20045;-87
2023/07/31 08:53:09;;;;;;;2.80;1.00;;;18.20;99.90;;;;;;5028881;28;20581;-87
2023/07/31 08:55:36;;;;;;;3.50;1.05;;;18.30;99.90;;;;;;5003234;28;20128;-86
2023/07/31 08:58:04;;;;;;;3.60;1.20;;;18.30;99.90;;;;;;4993119;28;20125;-87
2023/07/31 09:00:32;;;;;;;3.05;1.17;;;18.30;99.90;;;;;;4993084;28;20054;-86
2023/07/31 09:03:02;;;;;;;5.45;1.33;;;18.30;99.90;;;;;;5011126;28;20048;-86
2023/07/31 09:05:29;;;;;;;4.22;1.30;;;18.30;99.90;;;;;;5012638;28;20069;-87
2023/07/31 09:07:56;;;;;;;2.13;1.00;;;18.30;99.90;;;;;;4995581;28;20042;-86
2023/07/31 09:10:22;;;;;;;4.25;1.30;;;18.30;99.90;;;;;;4976045;28;20049;-86
2023/07/31 09:12:50;;;;;;;4.18;0.95;;;18.40;99.90;;;;;;4992539;28;20049;-86
2023/07/31 09:15:16;;;;;;;2.22;0.90;;;18.50;99.90;;;;;;5010635;28;20129;-86
2023/07/31 09:17:42;;;;;;;2.15;0.70;;;18.50;99.90;;;;;;4991117;28;20167;-86
2023/07/31 09:20:21;;;;;;;4.97;0.90;;;18.50;99.90;;;;;;4977094;28;20502;-87
2023/07/31 09:22:49;;;;;;;2.92;0.77;;;18.50;99.90;;;;;;5008905;28;20088;-87
2023/07/31 09:25:16;;;;;;;1.63;0.70;;;18.50;99.90;;;;;;4993054;28;20347;-87
2023/07/31 09:27:58;;;;;;;2.97;1.30;;;18.50;99.90;;;;;;5007762;28;20131;-87
2023/07/31 09:30:24;;;;;;;5.07;1.20;;;18.60;99.90;;;;;;4976589;28;20050;-86
2023/07/31 09:32:51;;;;;;;2.20;1.00;;;18.60;99.90;;;;;;5002734;28;20038;-86
2023/07/31 09:35:29;;;;;;;2.50;0.93;;;18.60;99.90;;;;;;5008542;28;20180;-85
2023/07/31 09:38:00;;;;;;;3.75;1.20;;;18.60;99.90;;;;;;5009354;28;20042;-86
2023/07/31 09:40:31;;;;;;;3.00;0.80;;;18.60;99.90;;;;;;5006716;28;20434;-85
2023/07/31 09:43:02;;;;;;;2.83;0.68;;;18.60;99.90;;;;;;5009486;28;20085;-85
2023/07/31 09:45:28;;;;;;;1.67;0.70;;;18.60;99.90;;;;;;5002318;28;20145;-85
2023/07/31 09:47:55;;;;;;;3.70;0.85;;;18.60;99.90;;;;;;4971214;28;20053;-86
2023/07/31 09:50:23;;;;;;;1.27;0.88;;;18.60;99.90;;;;;;5008670;28;20069;-85
2023/07/31 09:52:49;;;;;;;3.85;0.93;;;18.60;99.90;;;;;;4991636;28;20046;-85
2023/07/31 09:55:15;;;;;;;4.60;0.70;;;18.70;99.90;;;;;;4992596;28;20133;-85
2023/07/31 09:57:44;;;;;;;5.28;0.73;;;18.70;99.90;;;;;;4974770;28;20121;-86
2023/07/31 10:00:11;;;;;;;3.25;0.70;;;18.80;99.90;;;;;;5008560;28;20046;-85
2023/07/31 10:02:37;;;;;;;4.28;0.70;;;18.70;99.90;;;;;;4988315;28;20498;-85
2023/07/31 10:05:04;;;;;;;3.17;0.82;;;18.70;99.90;;;;;;5017097;28;20500;-85
2023/07/31 10:07:33;;;;;;;4.88;0.80;;;18.70;99.90;;;;;;5009552;28;20121;-87
2023/07/31 10:10:00;;;;;;;1.38;0.40;;;18.70;99.90;;;;;;5000373;28;20057;-87
2023/07/31 10:12:30;;;;;;;3.92;0.60;;;18.60;99.90;;;;;;5002054;28;20037;-87
2023/07/31 10:14:56;;;;;;;2.42;0.43;;;18.60;99.90;;;;;;4992787;28;20044;-87
2023/07/31 10:17:23;;;;;;;2.55;0.40;;;18.50;99.90;;;;;;4988865;28;20107;-87
2023/07/31 10:19:49;;;;;;;1.17;0.30;;;18.50;99.90;;;;;;5011238;28;20050;-88
2023/07/31 10:22:16;;;;;;;1.00;0.20;;;18.50;99.90;;;;;;5011870;28;20069;-87
2023/07/31 10:24:50;;;;;;;2.17;0.40;;;18.50;99.90;;;;;;5028488;28;20049;-88
2023/07/31 10:27:16;;;;;;;5.97;0.40;;;18.50;99.90;;;;;;4996391;28;20045;-88
2023/07/31 10:29:46;;;;;;;6.60;0.40;;;18.50;99.90;;;;;;5012333;28;20115;-87
2023/07/31 10:32:14;;;;;;;5.82;0.32;;;18.50;99.90;;;;;;5011043;28;20068;-86
2023/07/31 10:34:41;;;;;;;0.73;0.20;;;18.60;99.90;;;;;;5026720;28;20094;-87
2023/07/31 10:37:35;;;;;;;0.85;0.30;;;18.70;99.90;;;;;;5011344;28;20096;-86
2023/07/31 10:40:05;;;;;;;1.95;0.20;;;18.60;99.90;;;;;;5021718;28;20048;-87
2023/07/31 10:42:35;;;;;;;1.85;0.30;;;18.70;99.90;;;;;;5011049;28;20052;-86
2023/07/31 10:45:04;;;;;;;2.30;0.20;;;18.80;99.90;;;;;;4993977;28;20049;-86
2023/07/31 10:47:30;;;;;;;1.23;0.20;;;18.80;99.90;;;;;;5009563;28;20045;-87
2023/07/31 10:50:16;;;;;;;4.40;0.20;;;18.90;99.90;;;;;;5028204;28;20571;-85
2023/07/31 10:52:46;;;;;;;0.20;0.10;;;19.00;99.90;;;;;;4986938;28;20037;-87
2023/07/31 10:55:45;;;;;;;1.20;0.20;;;19.00;99.90;;;;;;5029719;28;20044;-87
2023/07/31 10:58:13;;;;;;;0.82;0.10;;;19.10;99.90;;;;;;4997792;28;20096;-86
2023/07/31 11:00:44;;;;;;;1.65;0.30;;;19.20;99.90;;;;;;5025925;28;20042;-87
2023/07/31 11:03:15;;;;;;;1.58;0.30;;;19.10;99.90;;;;;;4977416;28;20047;-86
2023/07/31 11:05:43;;;;;;;3.65;0.20;;;19.20;99.90;;;;;;4998559;28;20492;-84
2023/07/31 11:08:12;;;;;;;1.80;0.40;;;19.20;99.90;;;;;;4997372;28;20049;-85
2023/07/31 11:10:38;;;;;;;1.55;0.30;;;19.30;99.90;;;;;;5009194;28;20081;-84
2023/07/31 11:13:05;;;;;;;1.33;0.20;;;19.40;99.90;;;;;;4991961;28;20087;-85
2023/07/31 11:15:31;;;;;;;2.47;0.30;;;19.40;99.90;;;;;;4991914;28;20038;-85
2023/07/31 11:18:00;;;;;;;0.93;0.30;;;19.40;99.90;;;;;;4988749;28;20119;-86
2023/07/31 11:20:26;;;;;;;1.05;0.30;;;19.40;99.90;;;;;;4989432;28;20057;-85
2023/07/31 11:22:52;;;;;;;2.35;0.40;;;19.50;99.90;;;;;;5013982;28;20482;-85
2023/07/31 11:25:18;;;;;;;1.90;0.35;;;19.60;99.90;;;;;;4992263;28;20103;-86
2023/07/31 11:27:44;;;;;;;1.45;0.30;;;19.70;99.90;;;;;;4984381;28;20037;-85
2023/07/31 11:30:11;;;;;;;1.42;0.52;;;19.80;99.90;;;;;;4988399;28;20058;-85
2023/07/31 11:32:37;;;;;;;1.15;0.30;;;20.10;99.90;;;;;;5008633;28;20797;-86
2023/07/31 11:35:05;;;;;;;2.05;0.40;;;20.10;99.90;;;;;;4973285;28;20049;-86
2023/07/31 11:37:44;;;;;;;2.58;0.50;;;20.20;99.90;;;;;;4992164;28;20042;-85
2023/07/31 11:40:10;;;;;;;3.50;0.55;;;20.10;99.90;;;;;;4981022;28;20058;-85
2023/07/31 11:42:36;;;;;;;2.05;0.40;;;19.90;99.90;;;;;;4988604;28;20414;-86
2023/07/31 11:45:06;;;;;;;1.23;0.20;;;19.90;99.90;;;;;;4988801;28;20069;-85
2023/07/31 11:47:36;;;;;;;1.38;0.20;;;19.70;99.90;;;;;;4975179;28;20056;-87
2023/07/31 11:50:03;;;;;;;3.63;0.50;;;19.60;99.90;;;;;;4990594;28;20042;-87
2023/07/31 11:52:37;;;;;;;4.68;0.70;;;19.40;99.90;;;;;;5003188;28;20044;-86
2023/07/31 11:55:04;;;;;;;2.92;0.50;;;19.40;99.90;;;;;;5013997;28;20141;-86
2023/07/31 11:57:30;;;;;;;1.92;0.30;;;19.30;99.90;;;;;;5012623;28;20100;-87
2023/07/31 11:59:57;;;;;;;3.55;0.57;;;19.30;99.90;;;;;;4997614;28;20065;-87
2023/07/31 12:02:24;;;;;;;2.03;0.40;;;19.40;99.90;;;;;;5006310;28;20052;-87
2023/07/31 12:04:50;;;;;;;3.75;0.40;;;19.40;99.90;;;;;;4972563;28;20088;-87
2023/07/31 12:07:15;;;;;;;2.28;0.52;;;19.40;99.90;;;;;;4972502;28;20038;-87
2023/07/31 12:09:56;;;;;;;1.85;0.50;;;19.50;99.90;;;;;;4992071;28;20053;-86
2023/07/31 12:12:25;;;;;;;3.33;0.65;;;19.50;99.90;;;;;;5002740;28;20049;-87
2023/07/31 12:14:51;;;;;;;2.83;0.55;;;19.70;99.90;;;;;;4958532;28;20104;-86
2023/07/31 12:17:18;;;;;;;3.58;0.60;;;19.80;99.90;;;;;;5019633;28;20137;-87
2023/07/31 12:19:44;;;;;;;2.08;0.63;;;19.90;99.90;;;;;;5006234;28;20045;-86
2023/07/31 12:22:16;;;;;;;1.95;0.50;;;20.00;99.90;;;;;;4992610;28;20679;-86
2023/07/31 12:24:46;;;;;;;1.67;0.50;;;20.10;99.90;;;;;;5009931;28;20077;-86
2023/07/31 12:27:14;;;;;;;1.92;0.60;;;20.20;99.90;;;;;;4992942;28;20292;-87
2023/07/31 12:29:44;;;;;;;3.35;0.50;;;20.30;99.90;;;;;;5027589;28;20124;-87
2023/07/31 12:32:28;;;;;;;1.38;0.30;;;20.30;99.90;;;;;;4992427;28;20077;-87
2023/07/31 12:34:54;;;;;;;3.10;0.52;;;20.20;99.90;;;;;;4993304;28;20104;-87
2023/07/31 12:37:21;;;;;;;2.03;0.35;;;20.20;99.90;;;;;;4993145;28;20508;-85
2023/07/31 12:39:47;;;;;;;1.60;0.50;;;20.20;99.90;;;;;;5008759;28;20045;-86
2023/07/31 12:42:13;;;;;;;3.78;0.73;;;20.10;99.90;;;;;;5005619;28;20045;-86
2023/07/31 12:44:38;;;;;;;2.50;0.47;;;20.10;99.90;;;;;;5009067;28;20052;-86
2023/07/31 12:47:04;;;;;;;2.03;0.50;;;20.20;99.90;;;;;;5024941;28;20038;-86